Ashton, Nebraska
Current Conditions -  °F | °C
As of 1:53 PM on Sunday 23 Nov 2014 (Local Time) from KODX Reporting Station
Clear Clear  
Wind Chill: 37°   Ceiling: Unl
Heat Index: 46°   Visibility: 10mi
Dew Point: 24°   Wind: 29mph
Humidity: 42%   Direction: 340°NNW
Pressure: 29.57"   Gusts: 36mph
Location:  41.25°N, 98.79°W
Report Text: KODX 231953Z AUTO 34025G31KT 10SM CLR 08/M04 A2957 RMK AO2 PK WND 34036/1937 SLP022 T00781044
Loading
Personal Weather Stations






























Interactive Weather Map New forecast layout! Learn more

10-Day Weather Forecast

Advertisements
Track Severe Weather on mobile